Terminal Aerodrome Forecast
Issued by NWS Blacksburg, VA

Current Version | Previous Version | Graphics & Text | Print | Product List | Glossary On
Versions: 1 2 3 4 5 6 7 8 9 10 11 12 13 14 15 16 17 18 19 20 21 22 23 24 25 26 27 28 29 30 31 32 33 34 35 36 37 38 39 40 41 42 43 44 45 46 47
000
FTUS41 KRNK 170525
TAFBLF
TAF
KBLF 170525Z 1706/1806 02005KT P6SM SCT015 OVC035
     FM170900 VRB03KT 5SM BR SCT005 BKN015
      TEMPO 1710/1713 1SM BR OVC004
     FM171600 15003KT P6SM SCT007 BKN020
     FM171900 VRB03KT P6SM BKN040
     FM180000 14004KT P6SM SCT025=

USA.gov is the U.S. government's official web portal to all federal, state and local government web resources and services.